sensor_id;sensor_type;location;lat;lon;timestamp;P1;durP1;ratioP1;P2;durP2;ratioP2
54831;SDS011;40730;53.068;6.572;2022-08-23T00:01:29;0.80;;;0.55;;
54831;SDS011;40730;53.068;6.572;2022-08-23T00:03:57;2.00;;;0.47;;
54831;SDS011;40730;53.068;6.572;2022-08-23T00:06:25;6.10;;;0.60;;
54831;SDS011;40730;53.068;6.572;2022-08-23T00:08:52;2.15;;;0.82;;
54831;SDS011;40730;53.068;6.572;2022-08-23T00:16:43;1.80;;;0.57;;
54831;SDS011;40730;53.068;6.572;2022-08-23T00:19:10;1.52;;;0.82;;
54831;SDS011;40730;53.068;6.572;2022-08-23T00:21:38;5.60;;;1.05;;
54831;SDS011;40730;53.068;6.572;2022-08-23T00:24:06;1.00;;;0.57;;
54831;SDS011;40730;53.068;6.572;2022-08-23T00:27:07;6.40;;;2.42;;
54831;SDS011;40730;53.068;6.572;2022-08-23T00:29:34;4.28;;;3.00;;
54831;SDS011;40730;53.068;6.572;2022-08-23T00:32:00;9.20;;;4.93;;
54831;SDS011;40730;53.068;6.572;2022-08-23T00:34:26;6.88;;;5.38;;
54831;SDS011;40730;53.068;6.572;2022-08-23T00:36:52;6.30;;;4.50;;
54831;SDS011;40730;53.068;6.572;2022-08-23T00:39:19;10.75;;;5.65;;
54831;SDS011;40730;53.068;6.572;2022-08-23T00:41:46;5.13;;;4.15;;
54831;SDS011;40730;53.068;6.572;2022-08-23T00:44:29;6.15;;;4.28;;
54831;SDS011;40730;53.068;6.572;2022-08-23T00:47:16;6.25;;;3.47;;
54831;SDS011;40730;53.068;6.572;2022-08-23T00:50:38;2.05;;;1.85;;
54831;SDS011;40730;53.068;6.572;2022-08-23T00:53:03;1.55;;;1.45;;
54831;SDS011;40730;53.068;6.572;2022-08-23T00:55:43;1.63;;;0.90;;
54831;SDS011;40730;53.068;6.572;2022-08-23T00:58:12;2.38;;;1.27;;
54831;SDS011;40730;53.068;6.572;2022-08-23T01:00:40;2.47;;;1.23;;
54831;SDS011;40730;53.068;6.572;2022-08-23T01:03:06;4.57;;;1.55;;
54831;SDS011;40730;53.068;6.572;2022-08-23T01:05:42;1.80;;;1.52;;
54831;SDS011;40730;53.068;6.572;2022-08-23T01:08:20;3.05;;;1.92;;
54831;SDS011;40730;53.068;6.572;2022-08-23T01:10:52;5.05;;;2.40;;
54831;SDS011;40730;53.068;6.572;2022-08-23T01:13:24;2.13;;;1.63;;
54831;SDS011;40730;53.068;6.572;2022-08-23T01:15:59;3.03;;;1.83;;
54831;SDS011;40730;53.068;6.572;2022-08-23T01:18:31;3.90;;;1.35;;
54831;SDS011;40730;53.068;6.572;2022-08-23T01:21:13;1.67;;;0.50;;
54831;SDS011;40730;53.068;6.572;2022-08-23T01:23:50;1.38;;;0.80;;
54831;SDS011;40730;53.068;6.572;2022-08-23T01:26:19;2.85;;;1.58;;
54831;SDS011;40730;53.068;6.572;2022-08-23T01:28:46;2.88;;;2.58;;
54831;SDS011;40730;53.068;6.572;2022-08-23T01:31:13;2.58;;;2.38;;
54831;SDS011;40730;53.068;6.572;2022-08-23T01:33:40;2.75;;;2.53;;
54831;SDS011;40730;53.068;6.572;2022-08-23T01:36:08;2.85;;;2.47;;
54831;SDS011;40730;53.068;6.572;2022-08-23T01:38:37;2.67;;;2.47;;
54831;SDS011;40730;53.068;6.572;2022-08-23T01:41:03;2.15;;;1.85;;
54831;SDS011;40730;53.068;6.572;2022-08-23T01:43:30;2.45;;;1.50;;
54831;SDS011;40730;53.068;6.572;2022-08-23T01:45:56;3.97;;;1.98;;
54831;SDS011;40730;53.068;6.572;2022-08-23T01:48:22;3.45;;;2.25;;
54831;SDS011;40730;53.068;6.572;2022-08-23T01:50:47;2.67;;;1.88;;
54831;SDS011;40730;53.068;6.572;2022-08-23T01:53:13;2.85;;;2.25;;
54831;SDS011;40730;53.068;6.572;2022-08-23T01:55:40;5.55;;;2.80;;
54831;SDS011;40730;53.068;6.572;2022-08-23T01:58:07;6.88;;;4.20;;
54831;SDS011;40730;53.068;6.572;2022-08-23T02:00:35;5.43;;;4.03;;
54831;SDS011;40730;53.068;6.572;2022-08-23T02:03:03;6.03;;;3.92;;
54831;SDS011;40730;53.068;6.572;2022-08-23T02:05:30;7.32;;;5.80;;
54831;SDS011;40730;53.068;6.572;2022-08-23T02:07:56;11.50;;;6.82;;
54831;SDS011;40730;53.068;6.572;2022-08-23T02:10:41;3.13;;;2.85;;
54831;SDS011;40730;53.068;6.572;2022-08-23T02:13:07;2.35;;;0.80;;
54831;SDS011;40730;53.068;6.572;2022-08-23T02:15:33;1.42;;;0.80;;
54831;SDS011;40730;53.068;6.572;2022-08-23T02:17:58;3.28;;;1.70;;
54831;SDS011;40730;53.068;6.572;2022-08-23T02:20:24;5.20;;;4.13;;
54831;SDS011;40730;53.068;6.572;2022-08-23T02:22:50;7.35;;;3.95;;
54831;SDS011;40730;53.068;6.572;2022-08-23T02:25:15;3.72;;;1.98;;
54831;SDS011;40730;53.068;6.572;2022-08-23T02:27:41;2.30;;;1.95;;
54831;SDS011;40730;53.068;6.572;2022-08-23T02:30:07;3.88;;;2.03;;
54831;SDS011;40730;53.068;6.572;2022-08-23T02:32:33;2.55;;;1.20;;
54831;SDS011;40730;53.068;6.572;2022-08-23T02:34:59;1.92;;;1.25;;
54831;SDS011;40730;53.068;6.572;2022-08-23T02:37:25;5.22;;;1.38;;
54831;SDS011;40730;53.068;6.572;2022-08-23T02:39:51;3.10;;;1.77;;
54831;SDS011;40730;53.068;6.572;2022-08-23T02:42:16;4.70;;;2.05;;
54831;SDS011;40730;53.068;6.572;2022-08-23T02:44:42;8.48;;;6.35;;
54831;SDS011;40730;53.068;6.572;2022-08-23T02:47:08;7.70;;;3.72;;
54831;SDS011;40730;53.068;6.572;2022-08-23T02:49:35;3.72;;;2.83;;
54831;SDS011;40730;53.068;6.572;2022-08-23T02:52:01;9.38;;;6.28;;
54831;SDS011;40730;53.068;6.572;2022-08-23T02:54:28;9.30;;;4.70;;
54831;SDS011;40730;53.068;6.572;2022-08-23T02:56:54;11.25;;;6.97;;
54831;SDS011;40730;53.068;6.572;2022-08-23T02:59:19;15.30;;;9.18;;
54831;SDS011;40730;53.068;6.572;2022-08-23T03:01:45;18.80;;;10.13;;
54831;SDS011;40730;53.068;6.572;2022-08-23T03:04:11;7.05;;;3.50;;
54831;SDS011;40730;53.068;6.572;2022-08-23T03:06:36;4.57;;;2.38;;
54831;SDS011;40730;53.068;6.572;2022-08-23T03:09:03;4.13;;;1.30;;
54831;SDS011;40730;53.068;6.572;2022-08-23T03:11:30;1.67;;;0.40;;
54831;SDS011;40730;53.068;6.572;2022-08-23T03:13:56;1.10;;;0.60;;
54831;SDS011;40730;53.068;6.572;2022-08-23T03:16:22;1.20;;;0.55;;
54831;SDS011;40730;53.068;6.572;2022-08-23T03:18:48;1.92;;;1.60;;
54831;SDS011;40730;53.068;6.572;2022-08-23T03:21:14;4.97;;;3.47;;
54831;SDS011;40730;53.068;6.572;2022-08-23T03:23:41;9.27;;;6.38;;
54831;SDS011;40730;53.068;6.572;2022-08-23T03:26:08;9.45;;;6.50;;
54831;SDS011;40730;53.068;6.572;2022-08-23T03:28:36;12.40;;;7.22;;
54831;SDS011;40730;53.068;6.572;2022-08-23T03:31:03;11.88;;;6.93;;
54831;SDS011;40730;53.068;6.572;2022-08-23T03:33:29;15.55;;;10.90;;
54831;SDS011;40730;53.068;6.572;2022-08-23T03:35:58;13.45;;;8.70;;
54831;SDS011;40730;53.068;6.572;2022-08-23T03:38:25;11.75;;;9.48;;
54831;SDS011;40730;53.068;6.572;2022-08-23T03:40:50;14.57;;;10.98;;
54831;SDS011;40730;53.068;6.572;2022-08-23T03:43:18;17.88;;;13.02;;
54831;SDS011;40730;53.068;6.572;2022-08-23T03:45:43;17.02;;;12.93;;
54831;SDS011;40730;53.068;6.572;2022-08-23T03:48:09;18.60;;;13.20;;
54831;SDS011;40730;53.068;6.572;2022-08-23T03:50:35;15.27;;;12.52;;
54831;SDS011;40730;53.068;6.572;2022-08-23T03:53:00;18.88;;;14.45;;
54831;SDS011;40730;53.068;6.572;2022-08-23T03:55:26;20.77;;;15.00;;
54831;SDS011;40730;53.068;6.572;2022-08-23T03:57:52;35.20;;;24.02;;
54831;SDS011;40730;53.068;6.572;2022-08-23T04:00:18;26.88;;;20.48;;
54831;SDS011;40730;53.068;6.572;2022-08-23T04:02:44;20.90;;;15.82;;
54831;SDS011;40730;53.068;6.572;2022-08-23T04:05:10;19.48;;;13.40;;
54831;SDS011;40730;53.068;6.572;2022-08-23T04:07:36;11.77;;;9.48;;
54831;SDS011;40730;53.068;6.572;2022-08-23T04:10:03;9.85;;;7.78;;
54831;SDS011;40730;53.068;6.572;2022-08-23T04:12:30;8.13;;;4.82;;
54831;SDS011;40730;53.068;6.572;2022-08-23T04:14:56;5.05;;;2.60;;
54831;SDS011;40730;53.068;6.572;2022-08-23T04:17:22;5.90;;;3.50;;
54831;SDS011;40730;53.068;6.572;2022-08-23T04:19:47;3.47;;;2.08;;
54831;SDS011;40730;53.068;6.572;2022-08-23T04:22:14;4.00;;;2.83;;
54831;SDS011;40730;53.068;6.572;2022-08-23T04:24:41;3.00;;;2.25;;
54831;SDS011;40730;53.068;6.572;2022-08-23T04:27:08;3.92;;;3.15;;
54831;SDS011;40730;53.068;6.572;2022-08-23T04:29:34;11.45;;;6.47;;
54831;SDS011;40730;53.068;6.572;2022-08-23T04:32:00;12.85;;;10.50;;
54831;SDS011;40730;53.068;6.572;2022-08-23T04:34:27;12.32;;;9.57;;
54831;SDS011;40730;53.068;6.572;2022-08-23T04:36:52;18.33;;;15.50;;
54831;SDS011;40730;53.068;6.572;2022-08-23T04:39:18;21.95;;;14.32;;
54831;SDS011;40730;53.068;6.572;2022-08-23T04:41:44;17.70;;;15.15;;
54831;SDS011;40730;53.068;6.572;2022-08-23T04:44:28;23.63;;;18.13;;
54831;SDS011;40730;53.068;6.572;2022-08-23T04:46:54;27.27;;;21.02;;
54831;SDS011;40730;53.068;6.572;2022-08-23T04:49:19;32.42;;;24.67;;
54831;SDS011;40730;53.068;6.572;2022-08-23T04:51:47;39.13;;;22.65;;
54831;SDS011;40730;53.068;6.572;2022-08-23T04:54:13;35.03;;;26.95;;
54831;SDS011;40730;53.068;6.572;2022-08-23T04:56:39;29.88;;;22.38;;
54831;SDS011;40730;53.068;6.572;2022-08-23T04:59:05;38.58;;;26.55;;
54831;SDS011;40730;53.068;6.572;2022-08-23T05:01:31;26.40;;;18.73;;
54831;SDS011;40730;53.068;6.572;2022-08-23T05:03:58;23.38;;;16.20;;
54831;SDS011;40730;53.068;6.572;2022-08-23T05:06:25;32.35;;;21.92;;
54831;SDS011;40730;53.068;6.572;2022-08-23T05:08:51;23.52;;;17.05;;
54831;SDS011;40730;53.068;6.572;2022-08-23T05:11:16;23.50;;;17.35;;
54831;SDS011;40730;53.068;6.572;2022-08-23T05:13:43;18.65;;;15.07;;
54831;SDS011;40730;53.068;6.572;2022-08-23T05:16:08;23.85;;;17.60;;
54831;SDS011;40730;53.068;6.572;2022-08-23T05:18:34;27.17;;;20.55;;
54831;SDS011;40730;53.068;6.572;2022-08-23T05:21:00;25.40;;;21.48;;
54831;SDS011;40730;53.068;6.572;2022-08-23T05:23:26;25.13;;;19.25;;
54831;SDS011;40730;53.068;6.572;2022-08-23T05:25:52;19.40;;;14.80;;
54831;SDS011;40730;53.068;6.572;2022-08-23T05:33:22;31.92;;;20.75;;
54831;SDS011;40730;53.068;6.572;2022-08-23T05:35:48;34.47;;;25.92;;
54831;SDS011;40730;53.068;6.572;2022-08-23T05:38:14;30.75;;;25.30;;
54831;SDS011;40730;53.068;6.572;2022-08-23T05:40:40;30.23;;;24.05;;
54831;SDS011;40730;53.068;6.572;2022-08-23T05:43:06;36.20;;;29.38;;
54831;SDS011;40730;53.068;6.572;2022-08-23T05:45:31;36.80;;;27.10;;
54831;SDS011;40730;53.068;6.572;2022-08-23T05:47:57;27.08;;;23.55;;
54831;SDS011;40730;53.068;6.572;2022-08-23T05:50:22;35.83;;;28.52;;
54831;SDS011;40730;53.068;6.572;2022-08-23T05:52:48;34.85;;;25.83;;
54831;SDS011;40730;53.068;6.572;2022-08-23T05:55:13;32.75;;;25.58;;
54831;SDS011;40730;53.068;6.572;2022-08-23T05:57:39;32.38;;;24.92;;
54831;SDS011;40730;53.068;6.572;2022-08-23T06:00:06;28.20;;;23.25;;
54831;SDS011;40730;53.068;6.572;2022-08-23T06:02:36;25.55;;;22.83;;
54831;SDS011;40730;53.068;6.572;2022-08-23T06:05:01;27.20;;;21.00;;
54831;SDS011;40730;53.068;6.572;2022-08-23T06:07:27;22.75;;;20.35;;
54831;SDS011;40730;53.068;6.572;2022-08-23T06:09:53;23.50;;;20.70;;
54831;SDS011;40730;53.068;6.572;2022-08-23T06:12:19;21.20;;;19.15;;
54831;SDS011;40730;53.068;6.572;2022-08-23T06:14:45;22.65;;;20.27;;
54831;SDS011;40730;53.068;6.572;2022-08-23T06:17:11;23.00;;;20.48;;
54831;SDS011;40730;53.068;6.572;2022-08-23T06:19:36;25.60;;;22.20;;
54831;SDS011;40730;53.068;6.572;2022-08-23T06:22:02;21.38;;;19.00;;
54831;SDS011;40730;53.068;6.572;2022-08-23T06:24:28;21.63;;;19.63;;
54831;SDS011;40730;53.068;6.572;2022-08-23T06:26:53;22.17;;;19.88;;
54831;SDS011;40730;53.068;6.572;2022-08-23T06:29:19;18.35;;;16.17;;
54831;SDS011;40730;53.068;6.572;2022-08-23T06:31:46;17.92;;;16.05;;
54831;SDS011;40730;53.068;6.572;2022-08-23T06:34:28;20.23;;;18.08;;
54831;SDS011;40730;53.068;6.572;2022-08-23T06:37:03;17.92;;;16.02;;
54831;SDS011;40730;53.068;6.572;2022-08-23T06:39:30;16.58;;;14.98;;
54831;SDS011;40730;53.068;6.572;2022-08-23T06:42:00;17.25;;;14.65;;
54831;SDS011;40730;53.068;6.572;2022-08-23T06:44:35;15.05;;;13.55;;
54831;SDS011;40730;53.068;6.572;2022-08-23T06:47:01;14.23;;;12.57;;
54831;SDS011;40730;53.068;6.572;2022-08-23T06:49:28;10.50;;;9.43;;
54831;SDS011;40730;53.068;6.572;2022-08-23T06:51:54;10.52;;;9.43;;
54831;SDS011;40730;53.068;6.572;2022-08-23T06:54:22;12.60;;;9.68;;
54831;SDS011;40730;53.068;6.572;2022-08-23T06:56:50;11.57;;;9.18;;
54831;SDS011;40730;53.068;6.572;2022-08-23T06:59:16;9.98;;;8.43;;
54831;SDS011;40730;53.068;6.572;2022-08-23T07:01:46;9.13;;;8.23;;
54831;SDS011;40730;53.068;6.572;2022-08-23T07:04:19;9.45;;;6.32;;
54831;SDS011;40730;53.068;6.572;2022-08-23T07:06:46;10.05;;;7.38;;
54831;SDS011;40730;53.068;6.572;2022-08-23T07:09:12;8.23;;;6.95;;
54831;SDS011;40730;53.068;6.572;2022-08-23T07:11:38;7.63;;;6.85;;
54831;SDS011;40730;53.068;6.572;2022-08-23T07:14:05;6.45;;;5.82;;
54831;SDS011;40730;53.068;6.572;2022-08-23T07:16:35;8.73;;;5.97;;
54831;SDS011;40730;53.068;6.572;2022-08-23T07:19:07;8.77;;;5.90;;
54831;SDS011;40730;53.068;6.572;2022-08-23T07:21:33;6.80;;;5.38;;
54831;SDS011;40730;53.068;6.572;2022-08-23T07:23:59;6.28;;;5.22;;
54831;SDS011;40730;53.068;6.572;2022-08-23T07:26:25;7.18;;;5.03;;
54831;SDS011;40730;53.068;6.572;2022-08-23T07:28:51;5.53;;;4.25;;
54831;SDS011;40730;53.068;6.572;2022-08-23T07:31:19;8.90;;;4.35;;
54831;SDS011;40730;53.068;6.572;2022-08-23T07:33:51;6.35;;;3.75;;
54831;SDS011;40730;53.068;6.572;2022-08-23T07:36:19;4.13;;;3.60;;
54831;SDS011;40730;53.068;6.572;2022-08-23T07:38:46;8.30;;;3.13;;
54831;SDS011;40730;53.068;6.572;2022-08-23T07:41:12;5.05;;;2.88;;
54831;SDS011;40730;53.068;6.572;2022-08-23T07:43:39;6.40;;;3.03;;
54831;SDS011;40730;53.068;6.572;2022-08-23T07:46:06;6.18;;;3.45;;
54831;SDS011;40730;53.068;6.572;2022-08-23T07:48:32;5.20;;;2.88;;
54831;SDS011;40730;53.068;6.572;2022-08-23T07:50:59;5.47;;;3.22;;
54831;SDS011;40730;53.068;6.572;2022-08-23T07:53:27;8.65;;;2.70;;
54831;SDS011;40730;53.068;6.572;2022-08-23T07:55:53;3.85;;;2.33;;
54831;SDS011;40730;53.068;6.572;2022-08-23T07:58:19;5.53;;;2.22;;
54831;SDS011;40730;53.068;6.572;2022-08-23T08:00:46;4.00;;;2.05;;
54831;SDS011;40730;53.068;6.572;2022-08-23T08:03:12;5.13;;;2.10;;
54831;SDS011;40730;53.068;6.572;2022-08-23T08:05:39;3.65;;;2.33;;
54831;SDS011;40730;53.068;6.572;2022-08-23T08:08:05;4.47;;;2.05;;
54831;SDS011;40730;53.068;6.572;2022-08-23T08:10:32;5.60;;;1.85;;
54831;SDS011;40730;53.068;6.572;2022-08-23T08:13:00;5.22;;;2.15;;
54831;SDS011;40730;53.068;6.572;2022-08-23T08:15:26;4.30;;;1.95;;
54831;SDS011;40730;53.068;6.572;2022-08-23T08:17:51;3.83;;;2.03;;
54831;SDS011;40730;53.068;6.572;2022-08-23T08:20:18;6.38;;;2.45;;
54831;SDS011;40730;53.068;6.572;2022-08-23T08:22:45;6.47;;;2.47;;
54831;SDS011;40730;53.068;6.572;2022-08-23T08:25:11;3.22;;;1.98;;
54831;SDS011;40730;53.068;6.572;2022-08-23T08:27:38;7.68;;;2.75;;
54831;SDS011;40730;53.068;6.572;2022-08-23T08:30:05;3.97;;;2.25;;
54831;SDS011;40730;53.068;6.572;2022-08-23T08:32:32;7.00;;;2.33;;
54831;SDS011;40730;53.068;6.572;2022-08-23T08:34:57;9.85;;;2.92;;
54831;SDS011;40730;53.068;6.572;2022-08-23T08:37:23;5.15;;;1.85;;
54831;SDS011;40730;53.068;6.572;2022-08-23T08:39:48;4.30;;;2.10;;
54831;SDS011;40730;53.068;6.572;2022-08-23T08:44:53;5.97;;;1.60;;
54831;SDS011;40730;53.068;6.572;2022-08-23T08:47:46;3.72;;;1.27;;
54831;SDS011;40730;53.068;6.572;2022-08-23T08:50:29;3.17;;;1.35;;
54831;SDS011;40730;53.068;6.572;2022-08-23T08:55:40;6.20;;;1.38;;
54831;SDS011;40730;53.068;6.572;2022-08-23T08:58:18;4.25;;;1.20;;
54831;SDS011;40730;53.068;6.572;2022-08-23T09:00:48;6.28;;;1.70;;
54831;SDS011;40730;53.068;6.572;2022-08-23T09:03:15;5.75;;;1.60;;
54831;SDS011;40730;53.068;6.572;2022-08-23T09:05:51;4.85;;;1.42;;
54831;SDS011;40730;53.068;6.572;2022-08-23T09:18:52;2.75;;;0.90;;
54831;SDS011;40730;53.068;6.572;2022-08-23T09:21:21;3.85;;;1.00;;
54831;SDS011;40730;53.068;6.572;2022-08-23T09:23:48;4.78;;;1.20;;
54831;SDS011;40730;53.068;6.572;2022-08-23T09:26:23;3.63;;;1.20;;
54831;SDS011;40730;53.068;6.572;2022-08-23T09:28:52;3.95;;;1.00;;
54831;SDS011;40730;53.068;6.572;2022-08-23T09:34:07;3.88;;;1.48;;
54831;SDS011;40730;53.068;6.572;2022-08-23T09:36:35;5.90;;;1.38;;
54831;SDS011;40730;53.068;6.572;2022-08-23T09:39:04;8.73;;;1.52;;
54831;SDS011;40730;53.068;6.572;2022-08-23T09:41:40;3.97;;;1.73;;
54831;SDS011;40730;53.068;6.572;2022-08-23T09:44:10;6.43;;;1.52;;
54831;SDS011;40730;53.068;6.572;2022-08-23T09:46:38;3.28;;;1.00;;
54831;SDS011;40730;53.068;6.572;2022-08-23T09:51:45;2.50;;;1.30;;
54831;SDS011;40730;53.068;6.572;2022-08-23T09:54:20;2.67;;;1.40;;
54831;SDS011;40730;53.068;6.572;2022-08-23T09:57:06;4.97;;;1.30;;
54831;SDS011;40730;53.068;6.572;2022-08-23T09:59:37;3.58;;;1.38;;
54831;SDS011;40730;53.068;6.572;2022-08-23T10:02:12;2.20;;;1.00;;
54831;SDS011;40730;53.068;6.572;2022-08-23T10:04:43;5.68;;;1.40;;
54831;SDS011;40730;53.068;6.572;2022-08-23T10:07:31;3.45;;;1.60;;
54831;SDS011;40730;53.068;6.572;2022-08-23T10:10:18;4.68;;;1.25;;
54831;SDS011;40730;53.068;6.572;2022-08-23T10:13:07;4.15;;;1.80;;
54831;SDS011;40730;53.068;6.572;2022-08-23T10:15:47;3.60;;;1.52;;
54831;SDS011;40730;53.068;6.572;2022-08-23T10:26:41;3.30;;;0.90;;
54831;SDS011;40730;53.068;6.572;2022-08-23T10:32:23;5.45;;;0.90;;
54831;SDS011;40730;53.068;6.572;2022-08-23T10:40:58;3.33;;;1.10;;
54831;SDS011;40730;53.068;6.572;2022-08-23T10:43:38;6.57;;;0.90;;
54831;SDS011;40730;53.068;6.572;2022-08-23T10:46:12;4.57;;;0.87;;
54831;SDS011;40730;53.068;6.572;2022-08-23T10:48:48;3.25;;;0.57;;
54831;SDS011;40730;53.068;6.572;2022-08-23T10:51:23;4.32;;;0.88;;
54831;SDS011;40730;53.068;6.572;2022-08-23T10:56:30;5.00;;;0.75;;
54831;SDS011;40730;53.068;6.572;2022-08-23T11:01:39;4.60;;;0.63;;
54831;SDS011;40730;53.068;6.572;2022-08-23T11:04:12;2.63;;;0.82;;
54831;SDS011;40730;53.068;6.572;2022-08-23T11:06:50;4.72;;;0.60;;
54831;SDS011;40730;53.068;6.572;2022-08-23T11:11:47;3.10;;;0.68;;
54831;SDS011;40730;53.068;6.572;2022-08-23T11:17:42;2.80;;;0.60;;
54831;SDS011;40730;53.068;6.572;2022-08-23T11:24:52;3.30;;;0.90;;
54831;SDS011;40730;53.068;6.572;2022-08-23T11:28:29;2.20;;;0.88;;
54831;SDS011;40730;53.068;6.572;2022-08-23T11:33:25;2.88;;;0.70;;
54831;SDS011;40730;53.068;6.572;2022-08-23T11:57:50;3.33;;;0.90;;
54831;SDS011;40730;53.068;6.572;2022-08-23T12:03:32;2.80;;;0.60;;
54831;SDS011;40730;53.068;6.572;2022-08-23T12:06:06;3.05;;;0.63;;
54831;SDS011;40730;53.068;6.572;2022-08-23T12:11:14;3.58;;;0.70;;
54831;SDS011;40730;53.068;6.572;2022-08-23T12:13:47;6.32;;;0.88;;
54831;SDS011;40730;53.068;6.572;2022-08-23T12:24:29;3.88;;;0.57;;
54831;SDS011;40730;53.068;6.572;2022-08-23T12:26:48;2.47;;;0.93;;
54831;SDS011;40730;53.068;6.572;2022-08-23T12:35:18;3.22;;;0.60;;
54831;SDS011;40730;53.068;6.572;2022-08-23T12:38:03;3.95;;;0.57;;
54831;SDS011;40730;53.068;6.572;2022-08-23T12:40:44;2.30;;;0.50;;
54831;SDS011;40730;53.068;6.572;2022-08-23T12:45:47;2.55;;;0.80;;
54831;SDS011;40730;53.068;6.572;2022-08-23T12:48:25;2.47;;;0.50;;
54831;SDS011;40730;53.068;6.572;2022-08-23T12:50:58;4.15;;;0.65;;
54831;SDS011;40730;53.068;6.572;2022-08-23T12:53:26;2.88;;;0.55;;
54831;SDS011;40730;53.068;6.572;2022-08-23T12:56:05;5.95;;;0.63;;
54831;SDS011;40730;53.068;6.572;2022-08-23T12:58:36;3.35;;;0.70;;
54831;SDS011;40730;53.068;6.572;2022-08-23T13:01:05;4.68;;;0.60;;
54831;SDS011;40730;53.068;6.572;2022-08-23T13:03:41;4.00;;;0.70;;
54831;SDS011;40730;53.068;6.572;2022-08-23T13:06:12;6.53;;;0.80;;
54831;SDS011;40730;53.068;6.572;2022-08-23T13:08:50;4.40;;;0.77;;
54831;SDS011;40730;53.068;6.572;2022-08-23T13:11:21;6.18;;;1.02;;
54831;SDS011;40730;53.068;6.572;2022-08-23T13:13:56;5.82;;;0.70;;
54831;SDS011;40730;53.068;6.572;2022-08-23T13:16:40;2.85;;;0.63;;
54831;SDS011;40730;53.068;6.572;2022-08-23T13:21:47;4.65;;;0.70;;
54831;SDS011;40730;53.068;6.572;2022-08-23T13:27:12;2.47;;;0.88;;
54831;SDS011;40730;53.068;6.572;2022-08-23T13:29:50;2.45;;;1.08;;
54831;SDS011;40730;53.068;6.572;2022-08-23T13:34:53;3.97;;;1.08;;
54831;SDS011;40730;53.068;6.572;2022-08-23T13:37:30;3.70;;;1.00;;
54831;SDS011;40730;53.068;6.572;2022-08-23T13:39:58;3.40;;;1.38;;
54831;SDS011;40730;53.068;6.572;2022-08-23T13:42:37;3.50;;;0.77;;
54831;SDS011;40730;53.068;6.572;2022-08-23T13:45:20;3.03;;;0.88;;
54831;SDS011;40730;53.068;6.572;2022-08-23T13:47:52;3.88;;;0.70;;
54831;SDS011;40730;53.068;6.572;2022-08-23T13:50:23;2.00;;;1.17;;
54831;SDS011;40730;53.068;6.572;2022-08-23T13:52:51;3.78;;;0.90;;
54831;SDS011;40730;53.068;6.572;2022-08-23T13:55:17;4.15;;;1.20;;
54831;SDS011;40730;53.068;6.572;2022-08-23T13:57:42;4.50;;;1.00;;
54831;SDS011;40730;53.068;6.572;2022-08-23T14:00:08;4.40;;;1.02;;
54831;SDS011;40730;53.068;6.572;2022-08-23T14:02:35;4.93;;;0.90;;
54831;SDS011;40730;53.068;6.572;2022-08-23T14:05:02;5.15;;;1.00;;
54831;SDS011;40730;53.068;6.572;2022-08-23T14:07:30;4.72;;;0.80;;
54831;SDS011;40730;53.068;6.572;2022-08-23T14:09:55;4.45;;;1.15;;
54831;SDS011;40730;53.068;6.572;2022-08-23T14:12:23;6.53;;;1.20;;
54831;SDS011;40730;53.068;6.572;2022-08-23T14:14:54;4.53;;;1.50;;
54831;SDS011;40730;53.068;6.572;2022-08-23T14:17:23;6.43;;;1.10;;
54831;SDS011;40730;53.068;6.572;2022-08-23T14:19:49;3.72;;;1.00;;
54831;SDS011;40730;53.068;6.572;2022-08-23T14:22:15;3.15;;;1.38;;
54831;SDS011;40730;53.068;6.572;2022-08-23T14:24:42;3.95;;;1.00;;
54831;SDS011;40730;53.068;6.572;2022-08-23T14:27:08;3.45;;;1.17;;
54831;SDS011;40730;53.068;6.572;2022-08-23T14:29:34;3.65;;;1.52;;
54831;SDS011;40730;53.068;6.572;2022-08-23T14:32:00;5.63;;;1.35;;
54831;SDS011;40730;53.068;6.572;2022-08-23T14:34:27;3.95;;;0.90;;
54831;SDS011;40730;53.068;6.572;2022-08-23T14:36:53;7.72;;;1.25;;
54831;SDS011;40730;53.068;6.572;2022-08-23T14:39:19;4.82;;;1.13;;
54831;SDS011;40730;53.068;6.572;2022-08-23T14:41:46;4.63;;;1.40;;
54831;SDS011;40730;53.068;6.572;2022-08-23T14:44:12;4.35;;;1.45;;
54831;SDS011;40730;53.068;6.572;2022-08-23T14:46:38;4.93;;;1.23;;
54831;SDS011;40730;53.068;6.572;2022-08-23T14:49:04;7.30;;;1.27;;
54831;SDS011;40730;53.068;6.572;2022-08-23T14:51:31;3.05;;;0.90;;
54831;SDS011;40730;53.068;6.572;2022-08-23T14:53:59;5.20;;;1.45;;
54831;SDS011;40730;53.068;6.572;2022-08-23T14:56:27;3.78;;;1.10;;
54831;SDS011;40730;53.068;6.572;2022-08-23T14:58:53;4.25;;;0.98;;
54831;SDS011;40730;53.068;6.572;2022-08-23T15:01:19;7.10;;;1.33;;
54831;SDS011;40730;53.068;6.572;2022-08-23T15:03:46;6.32;;;1.52;;
54831;SDS011;40730;53.068;6.572;2022-08-23T15:06:13;2.92;;;0.88;;
54831;SDS011;40730;53.068;6.572;2022-08-23T15:08:40;5.57;;;1.23;;
54831;SDS011;40730;53.068;6.572;2022-08-23T15:11:06;10.18;;;1.35;;
54831;SDS011;40730;53.068;6.572;2022-08-23T15:13:33;5.05;;;1.48;;
54831;SDS011;40730;53.068;6.572;2022-08-23T15:16:03;2.25;;;0.90;;
54831;SDS011;40730;53.068;6.572;2022-08-23T15:18:30;3.00;;;1.33;;
54831;SDS011;40730;53.068;6.572;2022-08-23T15:20:56;5.50;;;1.30;;
54831;SDS011;40730;53.068;6.572;2022-08-23T15:23:22;2.28;;;1.10;;
54831;SDS011;40730;53.068;6.572;2022-08-23T15:25:47;3.30;;;1.08;;
54831;SDS011;40730;53.068;6.572;2022-08-23T15:28:14;5.32;;;1.02;;
54831;SDS011;40730;53.068;6.572;2022-08-23T15:30:41;3.67;;;0.93;;
54831;SDS011;40730;53.068;6.572;2022-08-23T15:33:07;4.82;;;1.60;;
54831;SDS011;40730;53.068;6.572;2022-08-23T15:35:35;3.20;;;1.10;;
54831;SDS011;40730;53.068;6.572;2022-08-23T15:38:06;3.65;;;1.30;;
54831;SDS011;40730;53.068;6.572;2022-08-23T15:40:32;4.97;;;1.27;;
54831;SDS011;40730;53.068;6.572;2022-08-23T15:42:58;6.55;;;1.88;;
54831;SDS011;40730;53.068;6.572;2022-08-23T15:45:24;3.17;;;1.15;;
54831;SDS011;40730;53.068;6.572;2022-08-23T15:47:53;5.07;;;1.45;;
54831;SDS011;40730;53.068;6.572;2022-08-23T15:50:21;4.65;;;1.73;;
54831;SDS011;40730;53.068;6.572;2022-08-23T15:52:49;4.97;;;1.50;;
54831;SDS011;40730;53.068;6.572;2022-08-23T15:55:15;7.85;;;1.60;;
54831;SDS011;40730;53.068;6.572;2022-08-23T15:57:45;2.63;;;1.35;;
54831;SDS011;40730;53.068;6.572;2022-08-23T16:00:14;5.72;;;1.83;;
54831;SDS011;40730;53.068;6.572;2022-08-23T16:02:41;3.67;;;1.40;;
54831;SDS011;40730;53.068;6.572;2022-08-23T16:05:09;3.63;;;1.60;;
54831;SDS011;40730;53.068;6.572;2022-08-23T16:07:54;3.20;;;1.15;;
54831;SDS011;40730;53.068;6.572;2022-08-23T16:10:45;4.00;;;1.52;;
54831;SDS011;40730;53.068;6.572;2022-08-23T16:13:11;6.35;;;1.55;;
54831;SDS011;40730;53.068;6.572;2022-08-23T16:15:37;3.30;;;1.40;;
54831;SDS011;40730;53.068;6.572;2022-08-23T16:18:03;2.97;;;1.33;;
54831;SDS011;40730;53.068;6.572;2022-08-23T16:20:29;4.25;;;1.88;;
54831;SDS011;40730;53.068;6.572;2022-08-23T16:22:55;3.10;;;1.30;;
54831;SDS011;40730;53.068;6.572;2022-08-23T16:25:20;5.63;;;1.80;;
54831;SDS011;40730;53.068;6.572;2022-08-23T16:27:46;5.03;;;1.73;;
54831;SDS011;40730;53.068;6.572;2022-08-23T16:30:12;3.28;;;1.60;;
54831;SDS011;40730;53.068;6.572;2022-08-23T16:32:38;5.25;;;1.20;;
54831;SDS011;40730;53.068;6.572;2022-08-23T16:35:03;4.60;;;1.10;;
54831;SDS011;40730;53.068;6.572;2022-08-23T16:37:30;3.45;;;1.23;;
54831;SDS011;40730;53.068;6.572;2022-08-23T16:39:55;3.97;;;1.30;;
54831;SDS011;40730;53.068;6.572;2022-08-23T16:42:21;5.88;;;1.50;;
54831;SDS011;40730;53.068;6.572;2022-08-23T16:44:47;3.33;;;1.35;;
54831;SDS011;40730;53.068;6.572;2022-08-23T16:47:12;5.97;;;1.60;;
54831;SDS011;40730;53.068;6.572;2022-08-23T16:49:39;4.07;;;1.23;;
54831;SDS011;40730;53.068;6.572;2022-08-23T16:52:07;3.03;;;1.63;;
54831;SDS011;40730;53.068;6.572;2022-08-23T16:54:34;3.50;;;1.60;;